sensor_id;sensor_type;location;lat;lon;timestamp;P1;durP1;ratioP1;P2;durP2;ratioP2
77571;SDS011;67214;47.454;18.966;2024-03-23T00:52:22;12.60;;;8.48;;
77571;SDS011;67214;47.454;18.966;2024-03-23T00:54:49;13.85;;;8.15;;
77571;SDS011;67214;47.454;18.966;2024-03-23T00:57:17;13.45;;;8.55;;
77571;SDS011;67214;47.454;18.966;2024-03-23T00:59:44;14.83;;;9.43;;
77571;SDS011;67214;47.454;18.966;2024-03-23T01:02:12;14.63;;;9.88;;
77571;SDS011;67214;47.454;18.966;2024-03-23T01:04:39;14.25;;;9.93;;
77571;SDS011;67214;47.454;18.966;2024-03-23T01:07:06;14.95;;;9.43;;
77571;SDS011;67214;47.454;18.966;2024-03-23T01:09:34;15.05;;;8.68;;
77571;SDS011;67214;47.454;18.966;2024-03-23T01:12:03;16.40;;;9.30;;
77571;SDS011;67214;47.454;18.966;2024-03-23T01:14:31;15.08;;;8.93;;
77571;SDS011;67214;47.454;18.966;2024-03-23T01:16:58;14.05;;;9.23;;
77571;SDS011;67214;47.454;18.966;2024-03-23T01:19:25;14.05;;;9.80;;
77571;SDS011;67214;47.454;18.966;2024-03-23T01:21:53;16.37;;;9.35;;
77571;SDS011;67214;47.454;18.966;2024-03-23T01:24:20;18.42;;;9.98;;
77571;SDS011;67214;47.454;18.966;2024-03-23T01:26:48;14.90;;;10.08;;
77571;SDS011;67214;47.454;18.966;2024-03-23T01:29:15;13.72;;;8.78;;
77571;SDS011;67214;47.454;18.966;2024-03-23T01:31:43;12.75;;;7.62;;
77571;SDS011;67214;47.454;18.966;2024-03-23T01:34:11;14.68;;;8.43;;
77571;SDS011;67214;47.454;18.966;2024-03-23T01:36:38;19.35;;;10.20;;
77571;SDS011;67214;47.454;18.966;2024-03-23T01:39:06;17.05;;;10.60;;
77571;SDS011;67214;47.454;18.966;2024-03-23T01:41:35;18.37;;;9.65;;
77571;SDS011;67214;47.454;18.966;2024-03-23T01:44:05;14.35;;;8.95;;
77571;SDS011;67214;47.454;18.966;2024-03-23T01:46:34;15.13;;;9.63;;
77571;SDS011;67214;47.454;18.966;2024-03-23T01:49:09;14.75;;;8.15;;
77571;SDS011;67214;47.454;18.966;2024-03-23T01:51:32;13.68;;;8.43;;
77571;SDS011;67214;47.454;18.966;2024-03-23T01:54:01;18.85;;;9.83;;
77571;SDS011;67214;47.454;18.966;2024-03-23T01:56:31;12.37;;;8.63;;
77571;SDS011;67214;47.454;18.966;2024-03-23T01:59:05;11.80;;;7.78;;
77571;SDS011;67214;47.454;18.966;2024-03-23T02:01:38;16.62;;;10.00;;
77571;SDS011;67214;47.454;18.966;2024-03-23T02:04:02;14.40;;;8.78;;
77571;SDS011;67214;47.454;18.966;2024-03-23T02:06:30;15.03;;;9.40;;
77571;SDS011;67214;47.454;18.966;2024-03-23T02:08:58;15.35;;;9.30;;
77571;SDS011;67214;47.454;18.966;2024-03-23T02:11:26;18.37;;;9.60;;
77571;SDS011;67214;47.454;18.966;2024-03-23T02:13:53;13.15;;;8.83;;
77571;SDS011;67214;47.454;18.966;2024-03-23T02:16:21;13.13;;;8.38;;
77571;SDS011;67214;47.454;18.966;2024-03-23T02:18:48;14.53;;;8.35;;
77571;SDS011;67214;47.454;18.966;2024-03-23T02:21:15;15.90;;;9.35;;
77571;SDS011;67214;47.454;18.966;2024-03-23T02:23:43;14.05;;;8.95;;
77571;SDS011;67214;47.454;18.966;2024-03-23T02:26:10;14.40;;;9.08;;
77571;SDS011;67214;47.454;18.966;2024-03-23T02:28:39;14.68;;;9.73;;
77571;SDS011;67214;47.454;18.966;2024-03-23T02:31:07;18.87;;;10.45;;
77571;SDS011;67214;47.454;18.966;2024-03-23T02:33:34;15.68;;;9.30;;
77571;SDS011;67214;47.454;18.966;2024-03-23T02:36:04;17.57;;;9.90;;
77571;SDS011;67214;47.454;18.966;2024-03-23T02:38:31;13.95;;;9.28;;
77571;SDS011;67214;47.454;18.966;2024-03-23T02:41:03;19.37;;;10.43;;
77571;SDS011;67214;47.454;18.966;2024-03-23T02:43:31;20.48;;;11.75;;
77571;SDS011;67214;47.454;18.966;2024-03-23T02:45:59;15.20;;;9.60;;
77571;SDS011;67214;47.454;18.966;2024-03-23T02:48:26;13.62;;;8.85;;
77571;SDS011;67214;47.454;18.966;2024-03-23T02:50:54;17.32;;;9.43;;
77571;SDS011;67214;47.454;18.966;2024-03-23T02:53:21;16.48;;;8.58;;
77571;SDS011;67214;47.454;18.966;2024-03-23T02:55:49;19.07;;;10.35;;
77571;SDS011;67214;47.454;18.966;2024-03-23T02:58:16;16.17;;;9.03;;
77571;SDS011;67214;47.454;18.966;2024-03-23T03:00:44;17.73;;;9.78;;
77571;SDS011;67214;47.454;18.966;2024-03-23T03:03:11;13.78;;;8.25;;
77571;SDS011;67214;47.454;18.966;2024-03-23T03:05:38;14.40;;;9.40;;
77571;SDS011;67214;47.454;18.966;2024-03-23T03:08:06;18.67;;;10.18;;
77571;SDS011;67214;47.454;18.966;2024-03-23T03:10:34;18.10;;;10.15;;
77571;SDS011;67214;47.454;18.966;2024-03-23T03:13:02;17.07;;;9.73;;
77571;SDS011;67214;47.454;18.966;2024-03-23T03:15:31;14.53;;;9.28;;
77571;SDS011;67214;47.454;18.966;2024-03-23T03:17:59;16.23;;;9.53;;
77571;SDS011;67214;47.454;18.966;2024-03-23T03:20:26;17.17;;;9.73;;
77571;SDS011;67214;47.454;18.966;2024-03-23T03:22:53;14.25;;;8.60;;
77571;SDS011;67214;47.454;18.966;2024-03-23T03:25:21;14.00;;;9.00;;
77571;SDS011;67214;47.454;18.966;2024-03-23T03:27:48;16.23;;;8.95;;
77571;SDS011;67214;47.454;18.966;2024-03-23T03:30:16;16.60;;;9.43;;
77571;SDS011;67214;47.454;18.966;2024-03-23T03:32:43;15.23;;;9.08;;
77571;SDS011;67214;47.454;18.966;2024-03-23T03:35:11;14.45;;;9.13;;
77571;SDS011;67214;47.454;18.966;2024-03-23T03:37:38;18.73;;;10.58;;
77571;SDS011;67214;47.454;18.966;2024-03-23T03:40:06;18.75;;;9.88;;
77571;SDS011;67214;47.454;18.966;2024-03-23T03:42:34;14.03;;;10.05;;
77571;SDS011;67214;47.454;18.966;2024-03-23T03:45:02;17.92;;;9.33;;
77571;SDS011;67214;47.454;18.966;2024-03-23T03:47:30;15.15;;;8.50;;
77571;SDS011;67214;47.454;18.966;2024-03-23T03:49:58;15.45;;;9.75;;
77571;SDS011;67214;47.454;18.966;2024-03-23T03:52:25;16.60;;;9.85;;
77571;SDS011;67214;47.454;18.966;2024-03-23T03:54:55;16.82;;;9.48;;
77571;SDS011;67214;47.454;18.966;2024-03-23T03:57:23;16.77;;;9.58;;
77571;SDS011;67214;47.454;18.966;2024-03-23T03:59:51;15.50;;;8.85;;
77571;SDS011;67214;47.454;18.966;2024-03-23T04:02:18;13.40;;;8.63;;
77571;SDS011;67214;47.454;18.966;2024-03-23T04:04:45;18.70;;;10.65;;
77571;SDS011;67214;47.454;18.966;2024-03-23T04:07:13;17.25;;;10.23;;
77571;SDS011;67214;47.454;18.966;2024-03-23T04:09:40;14.38;;;9.38;;
77571;SDS011;67214;47.454;18.966;2024-03-23T04:12:08;16.45;;;8.95;;
77571;SDS011;67214;47.454;18.966;2024-03-23T04:14:36;17.75;;;9.95;;
77571;SDS011;67214;47.454;18.966;2024-03-23T04:17:03;16.70;;;9.43;;
77571;SDS011;67214;47.454;18.966;2024-03-23T04:19:31;17.05;;;10.20;;
77571;SDS011;67214;47.454;18.966;2024-03-23T04:21:58;16.77;;;9.88;;
77571;SDS011;67214;47.454;18.966;2024-03-23T04:24:25;16.35;;;9.70;;
77571;SDS011;67214;47.454;18.966;2024-03-23T04:26:53;16.12;;;9.55;;
77571;SDS011;67214;47.454;18.966;2024-03-23T04:29:20;17.30;;;10.63;;
77571;SDS011;67214;47.454;18.966;2024-03-23T04:31:48;17.85;;;10.40;;
77571;SDS011;67214;47.454;18.966;2024-03-23T04:34:16;17.07;;;9.63;;
77571;SDS011;67214;47.454;18.966;2024-03-23T04:36:43;18.50;;;10.18;;
77571;SDS011;67214;47.454;18.966;2024-03-23T04:39:10;15.78;;;10.48;;
77571;SDS011;67214;47.454;18.966;2024-03-23T04:41:38;16.93;;;10.88;;
77571;SDS011;67214;47.454;18.966;2024-03-23T04:44:06;17.57;;;10.55;;
77571;SDS011;67214;47.454;18.966;2024-03-23T04:46:33;18.20;;;11.40;;
77571;SDS011;67214;47.454;18.966;2024-03-23T04:49:01;18.12;;;11.08;;
77571;SDS011;67214;47.454;18.966;2024-03-23T04:51:34;16.23;;;9.35;;
77571;SDS011;67214;47.454;18.966;2024-03-23T04:54:05;15.25;;;9.70;;
77571;SDS011;67214;47.454;18.966;2024-03-23T04:56:32;17.07;;;10.48;;
77571;SDS011;67214;47.454;18.966;2024-03-23T04:59:01;18.70;;;11.53;;
77571;SDS011;67214;47.454;18.966;2024-03-23T05:01:31;20.30;;;11.33;;
77571;SDS011;67214;47.454;18.966;2024-03-23T05:03:59;19.27;;;11.45;;
77571;SDS011;67214;47.454;18.966;2024-03-23T05:06:27;20.40;;;12.10;;
77571;SDS011;67214;47.454;18.966;2024-03-23T05:08:54;19.85;;;10.95;;
77571;SDS011;67214;47.454;18.966;2024-03-23T05:11:21;16.05;;;10.23;;
77571;SDS011;67214;47.454;18.966;2024-03-23T05:13:49;14.98;;;9.23;;
77571;SDS011;67214;47.454;18.966;2024-03-23T05:16:16;16.55;;;9.73;;
77571;SDS011;67214;47.454;18.966;2024-03-23T05:18:44;18.82;;;11.57;;
77571;SDS011;67214;47.454;18.966;2024-03-23T05:21:11;16.05;;;10.00;;
77571;SDS011;67214;47.454;18.966;2024-03-23T05:23:39;17.37;;;10.55;;
77571;SDS011;67214;47.454;18.966;2024-03-23T05:26:06;20.00;;;11.78;;
77571;SDS011;67214;47.454;18.966;2024-03-23T05:28:33;15.70;;;9.80;;
77571;SDS011;67214;47.454;18.966;2024-03-23T05:31:01;14.83;;;9.48;;
77571;SDS011;67214;47.454;18.966;2024-03-23T05:33:29;18.40;;;10.60;;
77571;SDS011;67214;47.454;18.966;2024-03-23T05:35:56;20.15;;;11.63;;
77571;SDS011;67214;47.454;18.966;2024-03-23T05:38:25;20.08;;;11.38;;
77571;SDS011;67214;47.454;18.966;2024-03-23T05:40:54;18.55;;;9.83;;
77571;SDS011;67214;47.454;18.966;2024-03-23T05:43:22;18.50;;;11.78;;
77571;SDS011;67214;47.454;18.966;2024-03-23T05:45:53;20.17;;;11.33;;
77571;SDS011;67214;47.454;18.966;2024-03-23T05:48:27;20.45;;;11.85;;
77571;SDS011;67214;47.454;18.966;2024-03-23T05:50:56;17.10;;;10.43;;
77571;SDS011;67214;47.454;18.966;2024-03-23T05:53:24;19.75;;;12.55;;
77571;SDS011;67214;47.454;18.966;2024-03-23T05:55:51;17.27;;;11.80;;
77571;SDS011;67214;47.454;18.966;2024-03-23T05:58:22;23.77;;;13.83;;
77571;SDS011;67214;47.454;18.966;2024-03-23T06:00:49;22.52;;;12.33;;
77571;SDS011;67214;47.454;18.966;2024-03-23T06:03:19;22.00;;;12.55;;
77571;SDS011;67214;47.454;18.966;2024-03-23T06:05:47;16.25;;;11.20;;
77571;SDS011;67214;47.454;18.966;2024-03-23T06:08:14;20.40;;;11.22;;
77571;SDS011;67214;47.454;18.966;2024-03-23T06:10:42;16.65;;;10.60;;
77571;SDS011;67214;47.454;18.966;2024-03-23T06:13:09;18.25;;;11.15;;
77571;SDS011;67214;47.454;18.966;2024-03-23T06:15:37;19.75;;;13.05;;
77571;SDS011;67214;47.454;18.966;2024-03-23T06:18:05;17.10;;;12.13;;
77571;SDS011;67214;47.454;18.966;2024-03-23T06:20:34;19.70;;;11.63;;
77571;SDS011;67214;47.454;18.966;2024-03-23T06:23:01;20.17;;;11.53;;
77571;SDS011;67214;47.454;18.966;2024-03-23T06:25:29;18.23;;;12.03;;
77571;SDS011;67214;47.454;18.966;2024-03-23T06:27:57;15.53;;;10.38;;
77571;SDS011;67214;47.454;18.966;2024-03-23T06:30:25;17.95;;;11.53;;
77571;SDS011;67214;47.454;18.966;2024-03-23T06:32:52;22.93;;;13.03;;
77571;SDS011;67214;47.454;18.966;2024-03-23T06:35:20;22.52;;;14.30;;
77571;SDS011;67214;47.454;18.966;2024-03-23T06:37:47;20.80;;;13.08;;
77571;SDS011;67214;47.454;18.966;2024-03-23T06:40:15;21.90;;;13.38;;
77571;SDS011;67214;47.454;18.966;2024-03-23T06:42:42;23.47;;;13.03;;
77571;SDS011;67214;47.454;18.966;2024-03-23T06:45:10;29.85;;;15.50;;
77571;SDS011;67214;47.454;18.966;2024-03-23T06:47:37;24.15;;;14.90;;
77571;SDS011;67214;47.454;18.966;2024-03-23T06:50:05;25.82;;;15.85;;
77571;SDS011;67214;47.454;18.966;2024-03-23T06:52:33;26.33;;;18.50;;
77571;SDS011;67214;47.454;18.966;2024-03-23T06:55:00;23.75;;;15.58;;
77571;SDS011;67214;47.454;18.966;2024-03-23T06:57:29;25.12;;;16.05;;
77571;SDS011;67214;47.454;18.966;2024-03-23T06:59:57;24.52;;;16.82;;
77571;SDS011;67214;47.454;18.966;2024-03-23T07:02:24;23.32;;;15.38;;
77571;SDS011;67214;47.454;18.966;2024-03-23T07:04:52;20.92;;;15.20;;
77571;SDS011;67214;47.454;18.966;2024-03-23T07:07:19;22.60;;;16.97;;
77571;SDS011;67214;47.454;18.966;2024-03-23T07:09:47;25.88;;;18.23;;
77571;SDS011;67214;47.454;18.966;2024-03-23T07:12:14;26.12;;;19.12;;
77571;SDS011;67214;47.454;18.966;2024-03-23T07:14:42;27.30;;;19.82;;
77571;SDS011;67214;47.454;18.966;2024-03-23T07:17:11;23.42;;;16.65;;
77571;SDS011;67214;47.454;18.966;2024-03-23T07:19:38;24.72;;;15.78;;
77571;SDS011;67214;47.454;18.966;2024-03-23T07:22:05;22.93;;;17.17;;
77571;SDS011;67214;47.454;18.966;2024-03-23T07:24:33;22.27;;;14.53;;
77571;SDS011;67214;47.454;18.966;2024-03-23T07:27:01;23.12;;;16.00;;
77571;SDS011;67214;47.454;18.966;2024-03-23T07:29:29;21.52;;;16.07;;
77571;SDS011;67214;47.454;18.966;2024-03-23T07:31:56;24.18;;;16.90;;
77571;SDS011;67214;47.454;18.966;2024-03-23T07:34:23;22.20;;;16.00;;
77571;SDS011;67214;47.454;18.966;2024-03-23T07:36:51;26.57;;;16.35;;
77571;SDS011;67214;47.454;18.966;2024-03-23T07:39:18;20.25;;;16.10;;
77571;SDS011;67214;47.454;18.966;2024-03-23T07:41:46;21.90;;;16.73;;
77571;SDS011;67214;47.454;18.966;2024-03-23T07:44:13;23.70;;;16.50;;
77571;SDS011;67214;47.454;18.966;2024-03-23T07:46:40;22.85;;;16.00;;
77571;SDS011;67214;47.454;18.966;2024-03-23T07:49:08;21.40;;;16.50;;
77571;SDS011;67214;47.454;18.966;2024-03-23T07:51:35;21.50;;;15.95;;
77571;SDS011;67214;47.454;18.966;2024-03-23T07:54:04;23.50;;;16.00;;
77571;SDS011;67214;47.454;18.966;2024-03-23T07:56:32;24.10;;;17.48;;
77571;SDS011;67214;47.454;18.966;2024-03-23T07:58:59;26.37;;;18.42;;
77571;SDS011;67214;47.454;18.966;2024-03-23T08:01:28;23.80;;;17.23;;
77571;SDS011;67214;47.454;18.966;2024-03-23T08:03:56;21.23;;;15.35;;
77571;SDS011;67214;47.454;18.966;2024-03-23T08:06:23;23.00;;;16.70;;
77571;SDS011;67214;47.454;18.966;2024-03-23T08:08:52;21.87;;;15.68;;
77571;SDS011;67214;47.454;18.966;2024-03-23T08:13:54;21.82;;;16.27;;
77571;SDS011;67214;47.454;18.966;2024-03-23T08:16:22;18.90;;;15.10;;
77571;SDS011;67214;47.454;18.966;2024-03-23T08:18:53;20.30;;;15.15;;
77571;SDS011;67214;47.454;18.966;2024-03-23T08:21:23;20.97;;;16.23;;
77571;SDS011;67214;47.454;18.966;2024-03-23T08:23:52;19.48;;;15.32;;
77571;SDS011;67214;47.454;18.966;2024-03-23T08:26:19;26.97;;;18.30;;
77571;SDS011;67214;47.454;18.966;2024-03-23T08:28:46;22.48;;;15.78;;
77571;SDS011;67214;47.454;18.966;2024-03-23T08:31:14;24.02;;;15.15;;
77571;SDS011;67214;47.454;18.966;2024-03-23T08:33:41;22.55;;;18.12;;
77571;SDS011;67214;47.454;18.966;2024-03-23T08:36:09;20.35;;;15.50;;
77571;SDS011;67214;47.454;18.966;2024-03-23T08:38:38;22.70;;;15.08;;
77571;SDS011;67214;47.454;18.966;2024-03-23T08:41:06;21.65;;;15.08;;
77571;SDS011;67214;47.454;18.966;2024-03-23T08:43:41;23.12;;;15.48;;
77571;SDS011;67214;47.454;18.966;2024-03-23T08:46:09;23.27;;;16.60;;
77571;SDS011;67214;47.454;18.966;2024-03-23T08:48:38;19.05;;;14.18;;
77571;SDS011;67214;47.454;18.966;2024-03-23T08:51:11;17.07;;;13.60;;
77571;SDS011;67214;47.454;18.966;2024-03-23T08:53:40;18.00;;;13.65;;
77571;SDS011;67214;47.454;18.966;2024-03-23T08:56:08;22.40;;;14.55;;
77571;SDS011;67214;47.454;18.966;2024-03-23T08:58:36;19.05;;;13.85;;
77571;SDS011;67214;47.454;18.966;2024-03-23T09:01:08;18.90;;;13.45;;
77571;SDS011;67214;47.454;18.966;2024-03-23T09:03:38;17.87;;;13.20;;
77571;SDS011;67214;47.454;18.966;2024-03-23T09:06:15;15.58;;;12.28;;
77571;SDS011;67214;47.454;18.966;2024-03-23T09:08:39;15.45;;;10.60;;
77571;SDS011;67214;47.454;18.966;2024-03-23T09:11:08;15.95;;;11.00;;
77571;SDS011;67214;47.454;18.966;2024-03-23T09:13:37;12.73;;;9.73;;
77571;SDS011;67214;47.454;18.966;2024-03-23T09:16:05;14.10;;;10.40;;
77571;SDS011;67214;47.454;18.966;2024-03-23T09:18:35;11.80;;;9.68;;
77571;SDS011;67214;47.454;18.966;2024-03-23T09:21:03;11.55;;;10.15;;
77571;SDS011;67214;47.454;18.966;2024-03-23T09:23:32;12.40;;;9.80;;
77571;SDS011;67214;47.454;18.966;2024-03-23T09:26:02;10.55;;;9.43;;
77571;SDS011;67214;47.454;18.966;2024-03-23T09:28:33;13.18;;;10.63;;
77571;SDS011;67214;47.454;18.966;2024-03-23T09:31:04;12.10;;;9.40;;
77571;SDS011;67214;47.454;18.966;2024-03-23T09:33:34;13.60;;;9.85;;
77571;SDS011;67214;47.454;18.966;2024-03-23T09:36:05;13.68;;;9.88;;
77571;SDS011;67214;47.454;18.966;2024-03-23T09:38:33;11.83;;;9.25;;
77571;SDS011;67214;47.454;18.966;2024-03-23T09:41:06;12.10;;;8.28;;
77571;SDS011;67214;47.454;18.966;2024-03-23T09:43:31;14.50;;;8.85;;
77571;SDS011;67214;47.454;18.966;2024-03-23T09:45:58;11.33;;;7.70;;
77571;SDS011;67214;47.454;18.966;2024-03-23T09:48:26;10.88;;;7.92;;
77571;SDS011;67214;47.454;18.966;2024-03-23T09:50:54;9.90;;;7.45;;
77571;SDS011;67214;47.454;18.966;2024-03-23T09:53:22;13.68;;;8.40;;
77571;SDS011;67214;47.454;18.966;2024-03-23T09:55:49;12.82;;;8.63;;
77571;SDS011;67214;47.454;18.966;2024-03-23T09:58:18;11.25;;;8.03;;
77571;SDS011;67214;47.454;18.966;2024-03-23T10:00:45;12.18;;;8.75;;
77571;SDS011;67214;47.454;18.966;2024-03-23T10:03:13;10.48;;;7.67;;
77571;SDS011;67214;47.454;18.966;2024-03-23T10:05:41;14.38;;;7.90;;
77571;SDS011;67214;47.454;18.966;2024-03-23T10:10:45;10.75;;;5.65;;
77571;SDS011;67214;47.454;18.966;2024-03-23T10:13:26;8.15;;;6.20;;
77571;SDS011;67214;47.454;18.966;2024-03-23T10:15:58;11.73;;;6.90;;
77571;SDS011;67214;47.454;18.966;2024-03-23T10:18:26;9.90;;;6.60;;
77571;SDS011;67214;47.454;18.966;2024-03-23T10:23:45;9.48;;;6.10;;
77571;SDS011;67214;47.454;18.966;2024-03-23T10:31:27;13.20;;;7.75;;
77571;SDS011;67214;47.454;18.966;2024-03-23T10:33:55;9.03;;;6.67;;
77571;SDS011;67214;47.454;18.966;2024-03-23T10:36:23;9.93;;;6.28;;
77571;SDS011;67214;47.454;18.966;2024-03-23T10:38:52;9.35;;;5.47;;
77571;SDS011;67214;47.454;18.966;2024-03-23T10:41:20;10.13;;;6.08;;
77571;SDS011;67214;47.454;18.966;2024-03-23T10:43:48;10.98;;;6.00;;
77571;SDS011;67214;47.454;18.966;2024-03-23T10:46:16;8.05;;;5.05;;
77571;SDS011;67214;47.454;18.966;2024-03-23T10:48:43;9.20;;;5.30;;
77571;SDS011;67214;47.454;18.966;2024-03-23T10:51:11;11.15;;;6.08;;
77571;SDS011;67214;47.454;18.966;2024-03-23T10:53:40;8.55;;;5.62;;
77571;SDS011;67214;47.454;18.966;2024-03-23T10:56:08;8.58;;;5.42;;
77571;SDS011;67214;47.454;18.966;2024-03-23T10:58:41;8.73;;;5.80;;
77571;SDS011;67214;47.454;18.966;2024-03-23T11:01:11;9.38;;;5.10;;
77571;SDS011;67214;47.454;18.966;2024-03-23T11:03:45;5.85;;;4.55;;
77571;SDS011;67214;47.454;18.966;2024-03-23T11:06:33;7.40;;;3.98;;
77571;SDS011;67214;47.454;18.966;2024-03-23T11:09:01;5.92;;;4.17;;
77571;SDS011;67214;47.454;18.966;2024-03-23T11:11:29;4.75;;;3.98;;
77571;SDS011;67214;47.454;18.966;2024-03-23T11:13:59;7.90;;;3.98;;
77571;SDS011;67214;47.454;18.966;2024-03-23T11:16:29;8.20;;;5.10;;
77571;SDS011;67214;47.454;18.966;2024-03-23T11:22:03;7.03;;;4.35;;
77571;SDS011;67214;47.454;18.966;2024-03-23T11:24:33;5.78;;;4.35;;
77571;SDS011;67214;47.454;18.966;2024-03-23T11:27:01;6.90;;;3.92;;
77571;SDS011;67214;47.454;18.966;2024-03-23T11:29:29;8.73;;;4.17;;
77571;SDS011;67214;47.454;18.966;2024-03-23T11:31:57;8.68;;;4.67;;
77571;SDS011;67214;47.454;18.966;2024-03-23T11:37:12;11.08;;;4.90;;
77571;SDS011;67214;47.454;18.966;2024-03-23T11:39:39;6.87;;;4.12;;
77571;SDS011;67214;47.454;18.966;2024-03-23T11:42:07;7.40;;;4.17;;
77571;SDS011;67214;47.454;18.966;2024-03-23T11:44:34;6.62;;;4.17;;
77571;SDS011;67214;47.454;18.966;2024-03-23T11:47:08;7.03;;;4.60;;
77571;SDS011;67214;47.454;18.966;2024-03-23T11:49:36;9.18;;;4.55;;
77571;SDS011;67214;47.454;18.966;2024-03-23T11:52:05;6.00;;;4.03;;
77571;SDS011;67214;47.454;18.966;2024-03-23T11:54:33;5.62;;;4.08;;
77571;SDS011;67214;47.454;18.966;2024-03-23T11:57:07;6.17;;;3.98;;
77571;SDS011;67214;47.454;18.966;2024-03-23T11:59:33;6.12;;;3.77;;
77571;SDS011;67214;47.454;18.966;2024-03-23T12:02:09;9.23;;;4.42;;
77571;SDS011;67214;47.454;18.966;2024-03-23T12:04:39;5.33;;;4.22;;
77571;SDS011;67214;47.454;18.966;2024-03-23T12:07:17;5.00;;;3.75;;
77571;SDS011;67214;47.454;18.966;2024-03-23T12:09:49;6.33;;;3.85;;
77571;SDS011;67214;47.454;18.966;2024-03-23T12:12:20;5.78;;;3.17;;
77571;SDS011;67214;47.454;18.966;2024-03-23T12:15:06;6.60;;;3.87;;
77571;SDS011;67214;47.454;18.966;2024-03-23T12:17:34;6.17;;;3.22;;
77571;SDS011;67214;47.454;18.966;2024-03-23T12:20:02;5.08;;;3.30;;
77571;SDS011;67214;47.454;18.966;2024-03-23T12:22:30;5.60;;;3.58;;
77571;SDS011;67214;47.454;18.966;2024-03-23T12:25:00;5.45;;;3.50;;
77571;SDS011;67214;47.454;18.966;2024-03-23T12:27:27;5.00;;;2.90;;
77571;SDS011;67214;47.454;18.966;2024-03-23T12:29:54;6.12;;;3.30;;
77571;SDS011;67214;47.454;18.966;2024-03-23T12:32:22;3.95;;;3.10;;
77571;SDS011;67214;47.454;18.966;2024-03-23T12:34:49;6.35;;;3.35;;
77571;SDS011;67214;47.454;18.966;2024-03-23T12:37:17;5.53;;;3.35;;
77571;SDS011;67214;47.454;18.966;2024-03-23T12:39:45;3.62;;;2.52;;
77571;SDS011;67214;47.454;18.966;2024-03-23T12:42:12;5.05;;;3.52;;
77571;SDS011;67214;47.454;18.966;2024-03-23T12:44:40;6.03;;;3.02;;
77571;SDS011;67214;47.454;18.966;2024-03-23T12:47:08;3.60;;;2.85;;
77571;SDS011;67214;47.454;18.966;2024-03-23T12:49:36;6.22;;;3.33;;
77571;SDS011;67214;47.454;18.966;2024-03-23T12:52:04;9.38;;;5.72;;
77571;SDS011;67214;47.454;18.966;2024-03-23T12:54:33;8.35;;;4.42;;
77571;SDS011;67214;47.454;18.966;2024-03-23T12:57:00;6.78;;;4.90;;
77571;SDS011;67214;47.454;18.966;2024-03-23T12:59:28;4.78;;;3.55;;
77571;SDS011;67214;47.454;18.966;2024-03-23T13:01:56;7.40;;;3.72;;
77571;SDS011;67214;47.454;18.966;2024-03-23T13:04:23;27.10;;;12.65;;
77571;SDS011;67214;47.454;18.966;2024-03-23T13:06:50;11.80;;;7.05;;
77571;SDS011;67214;47.454;18.966;2024-03-23T13:09:18;8.25;;;5.03;;
77571;SDS011;67214;47.454;18.966;2024-03-23T13:11:45;9.30;;;4.53;;
77571;SDS011;67214;47.454;18.966;2024-03-23T13:14:13;5.33;;;3.47;;
77571;SDS011;67214;47.454;18.966;2024-03-23T13:16:42;5.47;;;2.65;;
77571;SDS011;67214;47.454;18.966;2024-03-23T13:19:10;6.80;;;3.05;;
77571;SDS011;67214;47.454;18.966;2024-03-23T13:21:38;6.95;;;3.40;;
77571;SDS011;67214;47.454;18.966;2024-03-23T13:24:06;5.80;;;3.00;;
77571;SDS011;67214;47.454;18.966;2024-03-23T13:26:33;7.83;;;2.95;;
77571;SDS011;67214;47.454;18.966;2024-03-23T13:29:01;5.03;;;3.05;;
77571;SDS011;67214;47.454;18.966;2024-03-23T13:31:28;4.72;;;2.92;;
77571;SDS011;67214;47.454;18.966;2024-03-23T13:33:56;5.40;;;2.87;;
77571;SDS011;67214;47.454;18.966;2024-03-23T13:36:23;3.98;;;2.30;;
77571;SDS011;67214;47.454;18.966;2024-03-23T13:38:50;5.87;;;3.00;;
77571;SDS011;67214;47.454;18.966;2024-03-23T13:41:18;2.75;;;2.42;;
77571;SDS011;67214;47.454;18.966;2024-03-23T13:43:45;4.58;;;2.92;;
77571;SDS011;67214;47.454;18.966;2024-03-23T13:46:13;4.37;;;2.67;;
77571;SDS011;67214;47.454;18.966;2024-03-23T13:48:40;3.60;;;2.50;;
77571;SDS011;67214;47.454;18.966;2024-03-23T13:51:08;4.70;;;2.30;;
77571;SDS011;67214;47.454;18.966;2024-03-23T13:53:35;3.42;;;2.37;;
77571;SDS011;67214;47.454;18.966;2024-03-23T13:56:03;3.65;;;2.37;;
77571;SDS011;67214;47.454;18.966;2024-03-23T13:58:30;3.77;;;2.27;;
77571;SDS011;67214;47.454;18.966;2024-03-23T14:00:58;12.23;;;7.30;;
77571;SDS011;67214;47.454;18.966;2024-03-23T14:03:26;3.30;;;2.50;;
77571;SDS011;67214;47.454;18.966;2024-03-23T14:05:57;3.58;;;2.42;;
77571;SDS011;67214;47.454;18.966;2024-03-23T14:08:28;5.58;;;2.30;;
77571;SDS011;67214;47.454;18.966;2024-03-23T14:10:57;3.10;;;2.15;;
77571;SDS011;67214;47.454;18.966;2024-03-23T14:13:25;4.65;;;2.62;;
77571;SDS011;67214;47.454;18.966;2024-03-23T14:15:54;2.52;;;2.02;;
77571;SDS011;67214;47.454;18.966;2024-03-23T14:18:21;4.62;;;2.37;;
77571;SDS011;67214;47.454;18.966;2024-03-23T14:20:49;4.65;;;2.10;;
77571;SDS011;67214;47.454;18.966;2024-03-23T14:23:17;5.58;;;2.45;;
77571;SDS011;67214;47.454;18.966;2024-03-23T14:25:45;4.25;;;2.50;;
77571;SDS011;67214;47.454;18.966;2024-03-23T14:28:12;4.90;;;2.27;;
77571;SDS011;67214;47.454;18.966;2024-03-23T14:30:41;2.95;;;2.12;;
77571;SDS011;67214;47.454;18.966;2024-03-23T14:33:08;4.83;;;2.77;;
77571;SDS011;67214;47.454;18.966;2024-03-23T14:35:36;5.92;;;3.37;;
77571;SDS011;67214;47.454;18.966;2024-03-23T14:38:04;5.22;;;2.55;;
77571;SDS011;67214;47.454;18.966;2024-03-23T14:40:31;5.67;;;2.08;;
77571;SDS011;67214;47.454;18.966;2024-03-23T14:42:58;5.78;;;2.80;;
77571;SDS011;67214;47.454;18.966;2024-03-23T14:45:26;5.42;;;2.80;;
77571;SDS011;67214;47.454;18.966;2024-03-23T14:47:53;3.90;;;2.85;;
77571;SDS011;67214;47.454;18.966;2024-03-23T14:50:21;5.85;;;3.02;;
77571;SDS011;67214;47.454;18.966;2024-03-23T14:52:48;5.42;;;3.20;;
77571;SDS011;67214;47.454;18.966;2024-03-23T14:55:16;4.95;;;3.33;;
77571;SDS011;67214;47.454;18.966;2024-03-23T14:57:45;5.90;;;2.75;;
77571;SDS011;67214;47.454;18.966;2024-03-23T15:00:12;4.42;;;2.95;;
77571;SDS011;67214;47.454;18.966;2024-03-23T15:02:40;3.62;;;2.52;;
77571;SDS011;67214;47.454;18.966;2024-03-23T15:05:08;6.70;;;3.15;;
77571;SDS011;67214;47.454;18.966;2024-03-23T15:07:38;5.00;;;3.45;;
77571;SDS011;67214;47.454;18.966;2024-03-23T15:10:06;7.37;;;4.78;;
77571;SDS011;67214;47.454;18.966;2024-03-23T15:12:35;5.67;;;3.33;;
77571;SDS011;67214;47.454;18.966;2024-03-23T15:15:03;7.08;;;3.02;;
77571;SDS011;67214;47.454;18.966;2024-03-23T15:17:31;6.72;;;3.33;;
77571;SDS011;67214;47.454;18.966;2024-03-23T15:20:00;8.98;;;4.67;;
77571;SDS011;67214;47.454;18.966;2024-03-23T15:22:27;4.90;;;3.35;;
77571;SDS011;67214;47.454;18.966;2024-03-23T15:24:55;4.15;;;3.35;;
77571;SDS011;67214;47.454;18.966;2024-03-23T15:27:22;4.80;;;3.60;;
77571;SDS011;67214;47.454;18.966;2024-03-23T15:29:50;6.42;;;4.00;;
77571;SDS011;67214;47.454;18.966;2024-03-23T15:32:17;6.70;;;3.45;;
77571;SDS011;67214;47.454;18.966;2024-03-23T15:34:45;5.65;;;3.35;;
77571;SDS011;67214;47.454;18.966;2024-03-23T15:37:12;5.10;;;3.25;;